sensor_id;sensor_type;location;lat;lon;timestamp;temperature;humidity
41469;DHT22;27206;47.032;15.484;2023-10-19T00:01:07;6.40;99.90
41469;DHT22;27206;47.032;15.484;2023-10-19T00:03:35;6.40;99.90
41469;DHT22;27206;47.032;15.484;2023-10-19T00:06:01;6.50;99.90
41469;DHT22;27206;47.032;15.484;2023-10-19T00:08:26;6.50;99.90
41469;DHT22;27206;47.032;15.484;2023-10-19T00:11:02;6.50;99.90
41469;DHT22;27206;47.032;15.484;2023-10-19T00:13:30;6.50;99.90
41469;DHT22;27206;47.032;15.484;2023-10-19T00:15:57;6.30;99.90
41469;DHT22;27206;47.032;15.484;2023-10-19T00:18:24;6.50;99.90
41469;DHT22;27206;47.032;15.484;2023-10-19T00:20:55;6.50;99.90
41469;DHT22;27206;47.032;15.484;2023-10-19T00:23:44;6.50;99.90
41469;DHT22;27206;47.032;15.484;2023-10-19T00:26:13;6.40;99.90
41469;DHT22;27206;47.032;15.484;2023-10-19T00:28:50;6.40;99.90
41469;DHT22;27206;47.032;15.484;2023-10-19T00:31:19;6.50;99.90
41469;DHT22;27206;47.032;15.484;2023-10-19T00:33:48;6.60;99.90
41469;DHT22;27206;47.032;15.484;2023-10-19T00:36:17;6.50;99.90
41469;DHT22;27206;47.032;15.484;2023-10-19T00:38:46;6.50;99.90
41469;DHT22;27206;47.032;15.484;2023-10-19T00:41:15;6.50;99.90
41469;DHT22;27206;47.032;15.484;2023-10-19T00:43:46;6.50;99.90
41469;DHT22;27206;47.032;15.484;2023-10-19T00:46:19;6.60;99.90
41469;DHT22;27206;47.032;15.484;2023-10-19T00:48:50;6.50;99.90
41469;DHT22;27206;47.032;15.484;2023-10-19T00:51:23;6.60;99.90
41469;DHT22;27206;47.032;15.484;2023-10-19T00:54:10;6.60;99.90
41469;DHT22;27206;47.032;15.484;2023-10-19T00:56:45;6.60;99.90
41469;DHT22;27206;47.032;15.484;2023-10-19T00:59:15;6.50;99.90
41469;DHT22;27206;47.032;15.484;2023-10-19T01:01:51;6.50;99.90
41469;DHT22;27206;47.032;15.484;2023-10-19T01:04:20;6.60;99.90
41469;DHT22;27206;47.032;15.484;2023-10-19T01:06:51;6.50;99.90
41469;DHT22;27206;47.032;15.484;2023-10-19T01:09:55;6.60;99.90
41469;DHT22;27206;47.032;15.484;2023-10-19T01:12:23;6.60;99.90
41469;DHT22;27206;47.032;15.484;2023-10-19T01:15:13;6.60;99.90
41469;DHT22;27206;47.032;15.484;2023-10-19T01:17:40;6.50;99.90
41469;DHT22;27206;47.032;15.484;2023-10-19T01:20:10;6.40;99.90
41469;DHT22;27206;47.032;15.484;2023-10-19T01:22:55;6.40;99.90
41469;DHT22;27206;47.032;15.484;2023-10-19T01:25:46;6.20;99.90
41469;DHT22;27206;47.032;15.484;2023-10-19T01:28:22;6.30;99.90
41469;DHT22;27206;47.032;15.484;2023-10-19T01:30:51;6.40;99.90
41469;DHT22;27206;47.032;15.484;2023-10-19T01:33:20;6.30;99.90
41469;DHT22;27206;47.032;15.484;2023-10-19T01:35:47;6.30;99.90
41469;DHT22;27206;47.032;15.484;2023-10-19T01:38:31;6.30;99.90
41469;DHT22;27206;47.032;15.484;2023-10-19T01:41:01;6.30;99.90
41469;DHT22;27206;47.032;15.484;2023-10-19T01:43:31;6.30;99.90
41469;DHT22;27206;47.032;15.484;2023-10-19T01:46:00;6.30;99.90
41469;DHT22;27206;47.032;15.484;2023-10-19T01:48:30;6.10;99.90
41469;DHT22;27206;47.032;15.484;2023-10-19T01:51:04;6.00;99.90
41469;DHT22;27206;47.032;15.484;2023-10-19T01:53:34;6.10;99.90
41469;DHT22;27206;47.032;15.484;2023-10-19T01:56:07;6.20;99.90
41469;DHT22;27206;47.032;15.484;2023-10-19T01:58:36;6.00;99.90
41469;DHT22;27206;47.032;15.484;2023-10-19T02:01:06;6.00;99.90
41469;DHT22;27206;47.032;15.484;2023-10-19T02:03:44;5.90;99.90
41469;DHT22;27206;47.032;15.484;2023-10-19T02:06:11;5.90;99.90
41469;DHT22;27206;47.032;15.484;2023-10-19T02:08:52;5.90;99.90
41469;DHT22;27206;47.032;15.484;2023-10-19T02:11:22;5.80;99.90
41469;DHT22;27206;47.032;15.484;2023-10-19T02:13:52;5.80;99.90
41469;DHT22;27206;47.032;15.484;2023-10-19T02:16:18;5.80;99.90
41469;DHT22;27206;47.032;15.484;2023-10-19T02:18:58;5.80;99.90
41469;DHT22;27206;47.032;15.484;2023-10-19T02:21:24;5.80;99.90
41469;DHT22;27206;47.032;15.484;2023-10-19T02:23:53;5.60;99.90
41469;DHT22;27206;47.032;15.484;2023-10-19T02:26:20;5.60;99.90
41469;DHT22;27206;47.032;15.484;2023-10-19T02:28:48;5.70;99.90
41469;DHT22;27206;47.032;15.484;2023-10-19T02:31:17;5.80;99.90
41469;DHT22;27206;47.032;15.484;2023-10-19T02:33:48;5.70;99.90
41469;DHT22;27206;47.032;15.484;2023-10-19T02:36:18;5.80;99.90
41469;DHT22;27206;47.032;15.484;2023-10-19T02:38:45;5.70;99.90
41469;DHT22;27206;47.032;15.484;2023-10-19T02:41:18;5.70;99.90
41469;DHT22;27206;47.032;15.484;2023-10-19T02:43:49;5.60;99.90
41469;DHT22;27206;47.032;15.484;2023-10-19T02:46:17;5.70;99.90
41469;DHT22;27206;47.032;15.484;2023-10-19T02:48:46;5.70;99.90
41469;DHT22;27206;47.032;15.484;2023-10-19T02:51:15;5.70;99.90
41469;DHT22;27206;47.032;15.484;2023-10-19T02:53:41;5.70;99.90
41469;DHT22;27206;47.032;15.484;2023-10-19T02:56:14;5.50;99.90
41469;DHT22;27206;47.032;15.484;2023-10-19T02:58:45;5.60;99.90
41469;DHT22;27206;47.032;15.484;2023-10-19T03:01:20;5.70;99.90
41469;DHT22;27206;47.032;15.484;2023-10-19T03:03:54;5.70;99.90
41469;DHT22;27206;47.032;15.484;2023-10-19T03:06:21;5.70;99.90
41469;DHT22;27206;47.032;15.484;2023-10-19T03:08:48;5.60;99.90
41469;DHT22;27206;47.032;15.484;2023-10-19T03:11:23;5.50;99.90
41469;DHT22;27206;47.032;15.484;2023-10-19T03:13:50;5.60;99.90
41469;DHT22;27206;47.032;15.484;2023-10-19T03:16:17;5.50;99.90
41469;DHT22;27206;47.032;15.484;2023-10-19T03:18:43;5.60;99.90
41469;DHT22;27206;47.032;15.484;2023-10-19T03:21:09;5.40;99.90
41469;DHT22;27206;47.032;15.484;2023-10-19T03:23:36;5.40;99.90
41469;DHT22;27206;47.032;15.484;2023-10-19T03:26:03;5.40;99.90
41469;DHT22;27206;47.032;15.484;2023-10-19T03:28:51;5.40;99.90
41469;DHT22;27206;47.032;15.484;2023-10-19T03:31:24;5.30;99.90
41469;DHT22;27206;47.032;15.484;2023-10-19T03:33:51;5.30;99.90
41469;DHT22;27206;47.032;15.484;2023-10-19T03:36:21;5.40;99.90
41469;DHT22;27206;47.032;15.484;2023-10-19T03:38:48;5.40;99.90
41469;DHT22;27206;47.032;15.484;2023-10-19T03:41:15;5.40;99.90
41469;DHT22;27206;47.032;15.484;2023-10-19T03:43:41;5.10;99.90
41469;DHT22;27206;47.032;15.484;2023-10-19T03:46:07;5.10;99.90
41469;DHT22;27206;47.032;15.484;2023-10-19T03:48:50;5.10;99.90
41469;DHT22;27206;47.032;15.484;2023-10-19T03:51:16;5.20;99.90
41469;DHT22;27206;47.032;15.484;2023-10-19T03:53:42;5.20;99.90
41469;DHT22;27206;47.032;15.484;2023-10-19T03:56:14;5.30;99.90
41469;DHT22;27206;47.032;15.484;2023-10-19T03:58:39;5.30;99.90
41469;DHT22;27206;47.032;15.484;2023-10-19T04:01:07;5.30;99.90
41469;DHT22;27206;47.032;15.484;2023-10-19T04:03:34;5.20;99.90
41469;DHT22;27206;47.032;15.484;2023-10-19T04:06:02;5.10;99.90
41469;DHT22;27206;47.032;15.484;2023-10-19T04:08:30;5.00;99.90
41469;DHT22;27206;47.032;15.484;2023-10-19T04:11:00;5.10;99.90
41469;DHT22;27206;47.032;15.484;2023-10-19T04:13:46;5.10;99.90
41469;DHT22;27206;47.032;15.484;2023-10-19T04:16:11;5.00;99.90
41469;DHT22;27206;47.032;15.484;2023-10-19T04:18:37;5.10;99.90
41469;DHT22;27206;47.032;15.484;2023-10-19T04:21:09;5.10;99.90
41469;DHT22;27206;47.032;15.484;2023-10-19T04:23:35;5.10;99.90
41469;DHT22;27206;47.032;15.484;2023-10-19T04:26:01;5.00;99.90
41469;DHT22;27206;47.032;15.484;2023-10-19T04:28:42;5.10;99.90
41469;DHT22;27206;47.032;15.484;2023-10-19T04:31:12;5.10;99.90
41469;DHT22;27206;47.032;15.484;2023-10-19T04:33:40;5.10;99.90
41469;DHT22;27206;47.032;15.484;2023-10-19T04:36:08;5.10;99.90
41469;DHT22;27206;47.032;15.484;2023-10-19T04:38:36;5.10;99.90
41469;DHT22;27206;47.032;15.484;2023-10-19T04:41:06;5.10;99.90
41469;DHT22;27206;47.032;15.484;2023-10-19T04:43:34;5.10;99.90
41469;DHT22;27206;47.032;15.484;2023-10-19T04:46:00;5.20;99.90
41469;DHT22;27206;47.032;15.484;2023-10-19T04:48:26;5.20;99.90
41469;DHT22;27206;47.032;15.484;2023-10-19T04:50:52;5.30;99.90
41469;DHT22;27206;47.032;15.484;2023-10-19T04:53:17;5.10;99.90
41469;DHT22;27206;47.032;15.484;2023-10-19T04:55:45;5.00;99.90
41469;DHT22;27206;47.032;15.484;2023-10-19T04:58:11;4.90;99.90
41469;DHT22;27206;47.032;15.484;2023-10-19T05:00:37;5.00;99.90
41469;DHT22;27206;47.032;15.484;2023-10-19T05:03:03;5.00;99.90
41469;DHT22;27206;47.032;15.484;2023-10-19T05:05:28;4.80;99.90
41469;DHT22;27206;47.032;15.484;2023-10-19T05:07:54;4.90;99.90
41469;DHT22;27206;47.032;15.484;2023-10-19T05:10:20;4.90;99.90
41469;DHT22;27206;47.032;15.484;2023-10-19T05:12:45;4.90;99.90
41469;DHT22;27206;47.032;15.484;2023-10-19T05:15:11;5.00;99.90
41469;DHT22;27206;47.032;15.484;2023-10-19T05:17:36;4.90;99.90
41469;DHT22;27206;47.032;15.484;2023-10-19T05:20:02;5.00;99.90
41469;DHT22;27206;47.032;15.484;2023-10-19T05:22:30;5.00;99.90
41469;DHT22;27206;47.032;15.484;2023-10-19T05:24:58;4.80;99.90
41469;DHT22;27206;47.032;15.484;2023-10-19T05:27:24;5.00;99.90
41469;DHT22;27206;47.032;15.484;2023-10-19T05:29:49;5.00;99.90
41469;DHT22;27206;47.032;15.484;2023-10-19T05:32:16;5.00;99.90
41469;DHT22;27206;47.032;15.484;2023-10-19T05:34:42;5.10;99.90
41469;DHT22;27206;47.032;15.484;2023-10-19T05:37:08;5.10;99.90
41469;DHT22;27206;47.032;15.484;2023-10-19T05:39:34;5.10;99.90
41469;DHT22;27206;47.032;15.484;2023-10-19T05:42:01;5.20;99.90
41469;DHT22;27206;47.032;15.484;2023-10-19T05:44:30;5.20;99.90
41469;DHT22;27206;47.032;15.484;2023-10-19T05:46:56;5.00;99.90
41469;DHT22;27206;47.032;15.484;2023-10-19T05:49:23;5.00;99.90
41469;DHT22;27206;47.032;15.484;2023-10-19T05:51:50;5.00;99.90
41469;DHT22;27206;47.032;15.484;2023-10-19T05:54:15;5.10;99.90
41469;DHT22;27206;47.032;15.484;2023-10-19T05:56:42;5.20;99.90
41469;DHT22;27206;47.032;15.484;2023-10-19T05:59:08;5.20;99.90
41469;DHT22;27206;47.032;15.484;2023-10-19T06:01:35;5.30;99.90
41469;DHT22;27206;47.032;15.484;2023-10-19T06:04:02;5.40;99.90
41469;DHT22;27206;47.032;15.484;2023-10-19T06:06:28;5.40;99.90
41469;DHT22;27206;47.032;15.484;2023-10-19T06:08:54;5.40;99.90
41469;DHT22;27206;47.032;15.484;2023-10-19T06:11:20;5.50;99.90
41469;DHT22;27206;47.032;15.484;2023-10-19T06:13:46;5.60;99.90
41469;DHT22;27206;47.032;15.484;2023-10-19T06:16:13;5.70;99.90
41469;DHT22;27206;47.032;15.484;2023-10-19T06:18:40;5.70;99.90
41469;DHT22;27206;47.032;15.484;2023-10-19T06:21:08;5.90;99.90
41469;DHT22;27206;47.032;15.484;2023-10-19T06:23:35;5.80;99.90
41469;DHT22;27206;47.032;15.484;2023-10-19T06:26:09;5.80;99.90
41469;DHT22;27206;47.032;15.484;2023-10-19T06:28:36;6.00;99.90
41469;DHT22;27206;47.032;15.484;2023-10-19T06:31:04;5.90;99.90
41469;DHT22;27206;47.032;15.484;2023-10-19T06:33:30;6.00;99.90
41469;DHT22;27206;47.032;15.484;2023-10-19T06:35:58;6.00;99.90
41469;DHT22;27206;47.032;15.484;2023-10-19T06:38:25;6.00;99.90
41469;DHT22;27206;47.032;15.484;2023-10-19T06:40:51;6.20;99.90
41469;DHT22;27206;47.032;15.484;2023-10-19T06:43:17;6.20;99.90
41469;DHT22;27206;47.032;15.484;2023-10-19T06:45:46;6.40;99.90
41469;DHT22;27206;47.032;15.484;2023-10-19T06:48:11;6.50;99.90
41469;DHT22;27206;47.032;15.484;2023-10-19T06:50:37;6.40;99.90
41469;DHT22;27206;47.032;15.484;2023-10-19T06:53:03;6.50;99.90
41469;DHT22;27206;47.032;15.484;2023-10-19T06:55:31;6.50;99.90
41469;DHT22;27206;47.032;15.484;2023-10-19T06:57:56;6.60;99.90
41469;DHT22;27206;47.032;15.484;2023-10-19T07:00:24;6.60;99.90
41469;DHT22;27206;47.032;15.484;2023-10-19T07:02:55;6.80;99.90
41469;DHT22;27206;47.032;15.484;2023-10-19T07:05:22;7.00;99.90
41469;DHT22;27206;47.032;15.484;2023-10-19T07:07:50;7.10;99.90
41469;DHT22;27206;47.032;15.484;2023-10-19T07:10:17;7.10;99.90
41469;DHT22;27206;47.032;15.484;2023-10-19T07:12:48;7.10;99.90
41469;DHT22;27206;47.032;15.484;2023-10-19T07:15:14;7.30;99.90
41469;DHT22;27206;47.032;15.484;2023-10-19T07:17:44;7.40;99.90
41469;DHT22;27206;47.032;15.484;2023-10-19T07:20:11;7.60;99.90
41469;DHT22;27206;47.032;15.484;2023-10-19T07:22:51;7.90;99.90
41469;DHT22;27206;47.032;15.484;2023-10-19T07:25:17;7.90;99.90
41469;DHT22;27206;47.032;15.484;2023-10-19T07:27:50;8.00;99.90
41469;DHT22;27206;47.032;15.484;2023-10-19T07:30:19;8.10;99.90
41469;DHT22;27206;47.032;15.484;2023-10-19T07:32:52;8.10;99.90
41469;DHT22;27206;47.032;15.484;2023-10-19T07:35:24;8.30;99.90
41469;DHT22;27206;47.032;15.484;2023-10-19T07:37:52;8.40;99.90
41469;DHT22;27206;47.032;15.484;2023-10-19T07:40:18;8.50;99.90
41469;DHT22;27206;47.032;15.484;2023-10-19T07:42:48;8.70;99.90
41469;DHT22;27206;47.032;15.484;2023-10-19T07:45:15;8.90;99.90
41469;DHT22;27206;47.032;15.484;2023-10-19T07:47:42;9.00;99.90
41469;DHT22;27206;47.032;15.484;2023-10-19T07:50:08;9.30;99.90
41469;DHT22;27206;47.032;15.484;2023-10-19T07:52:44;9.50;99.90
41469;DHT22;27206;47.032;15.484;2023-10-19T07:55:10;9.60;99.90
41469;DHT22;27206;47.032;15.484;2023-10-19T07:57:36;9.90;99.90
41469;DHT22;27206;47.032;15.484;2023-10-19T08:00:02;10.00;99.90
41469;DHT22;27206;47.032;15.484;2023-10-19T08:02:29;10.10;98.10
41469;DHT22;27206;47.032;15.484;2023-10-19T08:04:56;10.30;99.50
41469;DHT22;27206;47.032;15.484;2023-10-19T08:07:22;10.40;96.50
41469;DHT22;27206;47.032;15.484;2023-10-19T08:09:47;10.50;92.80
41469;DHT22;27206;47.032;15.484;2023-10-19T08:12:13;10.60;91.40
41469;DHT22;27206;47.032;15.484;2023-10-19T08:14:39;10.80;91.00
41469;DHT22;27206;47.032;15.484;2023-10-19T08:17:05;11.00;92.90
41469;DHT22;27206;47.032;15.484;2023-10-19T08:19:34;10.90;87.10
41469;DHT22;27206;47.032;15.484;2023-10-19T08:22:00;11.00;91.20
41469;DHT22;27206;47.032;15.484;2023-10-19T08:24:25;11.40;87.20
41469;DHT22;27206;47.032;15.484;2023-10-19T08:26:54;11.60;81.10
41469;DHT22;27206;47.032;15.484;2023-10-19T08:29:20;11.60;76.00
41469;DHT22;27206;47.032;15.484;2023-10-19T08:31:47;11.70;79.50
41469;DHT22;27206;47.032;15.484;2023-10-19T08:34:13;11.80;67.40
41469;DHT22;27206;47.032;15.484;2023-10-19T08:36:39;12.00;74.40
41469;DHT22;27206;47.032;15.484;2023-10-19T08:39:09;12.20;66.40
41469;DHT22;27206;47.032;15.484;2023-10-19T08:41:37;12.50;72.30
41469;DHT22;27206;47.032;15.484;2023-10-19T08:44:07;12.70;54.60
41469;DHT22;27206;47.032;15.484;2023-10-19T08:46:45;13.00;47.10
41469;DHT22;27206;47.032;15.484;2023-10-19T08:49:13;13.20;50.70
41469;DHT22;27206;47.032;15.484;2023-10-19T08:51:46;13.10;48.80
41469;DHT22;27206;47.032;15.484;2023-10-19T08:54:15;13.00;51.60
41469;DHT22;27206;47.032;15.484;2023-10-19T08:56:41;13.00;49.00
41469;DHT22;27206;47.032;15.484;2023-10-19T08:59:08;12.90;43.90
41469;DHT22;27206;47.032;15.484;2023-10-19T09:01:36;12.90;48.20
41469;DHT22;27206;47.032;15.484;2023-10-19T09:04:02;13.00;45.60
41469;DHT22;27206;47.032;15.484;2023-10-19T09:06:34;13.20;43.30
41469;DHT22;27206;47.032;15.484;2023-10-19T09:09:07;13.20;47.10
41469;DHT22;27206;47.032;15.484;2023-10-19T09:11:34;13.20;46.80
41469;DHT22;27206;47.032;15.484;2023-10-19T09:14:01;13.20;34.20
41469;DHT22;27206;47.032;15.484;2023-10-19T09:16:29;13.20;44.00
41469;DHT22;27206;47.032;15.484;2023-10-19T09:18:56;13.40;48.50
41469;DHT22;27206;47.032;15.484;2023-10-19T09:21:24;13.80;59.30
41469;DHT22;27206;47.032;15.484;2023-10-19T09:23:51;13.80;58.20
41469;DHT22;27206;47.032;15.484;2023-10-19T09:26:17;13.70;43.80
41469;DHT22;27206;47.032;15.484;2023-10-19T09:28:46;13.90;50.90
41469;DHT22;27206;47.032;15.484;2023-10-19T09:31:17;14.00;51.30
41469;DHT22;27206;47.032;15.484;2023-10-19T09:33:44;14.30;45.30
41469;DHT22;27206;47.032;15.484;2023-10-19T09:36:10;14.70;31.70
41469;DHT22;27206;47.032;15.484;2023-10-19T09:41:11;15.30;37.60
41469;DHT22;27206;47.032;15.484;2023-10-19T09:43:44;15.40;30.00
41469;DHT22;27206;47.032;15.484;2023-10-19T09:46:10;15.70;18.70
41469;DHT22;27206;47.032;15.484;2023-10-19T09:48:47;15.80;8.00
41469;DHT22;27206;47.032;15.484;2023-10-19T09:51:18;15.70;3.40
41469;DHT22;27206;47.032;15.484;2023-10-19T09:53:48;15.70;8.50
41469;DHT22;27206;47.032;15.484;2023-10-19T09:56:26;16.30;15.70
41469;DHT22;27206;47.032;15.484;2023-10-19T09:58:55;16.40;9.50
41469;DHT22;27206;47.032;15.484;2023-10-19T10:01:24;16.40;9.20
41469;DHT22;27206;47.032;15.484;2023-10-19T10:03:52;16.30;1.00
41469;DHT22;27206;47.032;15.484;2023-10-19T10:06:28;16.80;1.40
41469;DHT22;27206;47.032;15.484;2023-10-19T10:08:54;16.30;1.00
41469;DHT22;27206;47.032;15.484;2023-10-19T10:13:48;15.70;22.30
41469;DHT22;27206;47.032;15.484;2023-10-19T10:16:27;16.20;20.30
41469;DHT22;27206;47.032;15.484;2023-10-19T10:18:58;16.20;18.50
41469;DHT22;27206;47.032;15.484;2023-10-19T10:21:30;15.90;24.60
41469;DHT22;27206;47.032;15.484;2023-10-19T10:24:02;16.40;24.40
41469;DHT22;27206;47.032;15.484;2023-10-19T10:26:30;16.60;21.40
41469;DHT22;27206;47.032;15.484;2023-10-19T10:29:21;16.60;21.40
41469;DHT22;27206;47.032;15.484;2023-10-19T10:31:49;16.30;25.60
41469;DHT22;27206;47.032;15.484;2023-10-19T10:37:06;16.10;38.60
41469;DHT22;27206;47.032;15.484;2023-10-19T10:39:38;16.20;43.20
41469;DHT22;27206;47.032;15.484;2023-10-19T10:42:05;16.10;45.20
41469;DHT22;27206;47.032;15.484;2023-10-19T10:44:43;16.00;43.60
41469;DHT22;27206;47.032;15.484;2023-10-19T10:47:16;16.10;45.00
41469;DHT22;27206;47.032;15.484;2023-10-19T10:52:36;16.00;54.20
41469;DHT22;27206;47.032;15.484;2023-10-19T10:55:14;16.00;63.30
41469;DHT22;27206;47.032;15.484;2023-10-19T10:57:41;16.20;61.60
41469;DHT22;27206;47.032;15.484;2023-10-19T11:00:09;16.30;57.40
41469;DHT22;27206;47.032;15.484;2023-10-19T11:02:40;16.20;53.10
41469;DHT22;27206;47.032;15.484;2023-10-19T11:05:15;16.10;62.10
41469;DHT22;27206;47.032;15.484;2023-10-19T11:08:02;16.10;72.50
41469;DHT22;27206;47.032;15.484;2023-10-19T11:10:28;16.40;67.40
41469;DHT22;27206;47.032;15.484;2023-10-19T11:13:08;16.50;68.50
41469;DHT22;27206;47.032;15.484;2023-10-19T11:15:36;16.60;75.30
41469;DHT22;27206;47.032;15.484;2023-10-19T11:18:02;16.70;67.40
41469;DHT22;27206;47.032;15.484;2023-10-19T11:20:29;16.70;66.70
41469;DHT22;27206;47.032;15.484;2023-10-19T11:22:55;16.80;60.70
41469;DHT22;27206;47.032;15.484;2023-10-19T11:25:24;16.90;63.70
41469;DHT22;27206;47.032;15.484;2023-10-19T11:27:50;16.80;62.60
41469;DHT22;27206;47.032;15.484;2023-10-19T11:30:29;16.90;66.40
41469;DHT22;27206;47.032;15.484;2023-10-19T11:32:57;17.00;62.40
41469;DHT22;27206;47.032;15.484;2023-10-19T11:35:24;17.00;58.40
41469;DHT22;27206;47.032;15.484;2023-10-19T11:37:51;17.10;57.40
41469;DHT22;27206;47.032;15.484;2023-10-19T11:40:20;17.40;62.10
41469;DHT22;27206;47.032;15.484;2023-10-19T11:42:45;17.60;58.50
41469;DHT22;27206;47.032;15.484;2023-10-19T11:45:12;17.60;51.60
41469;DHT22;27206;47.032;15.484;2023-10-19T11:47:38;17.90;51.50
41469;DHT22;27206;47.032;15.484;2023-10-19T11:50:04;17.90;40.80
41469;DHT22;27206;47.032;15.484;2023-10-19T11:52:30;18.50;45.00
41469;DHT22;27206;47.032;15.484;2023-10-19T11:54:57;18.90;41.80
41469;DHT22;27206;47.032;15.484;2023-10-19T11:57:24;19.20;23.40
41469;DHT22;27206;47.032;15.484;2023-10-19T11:59:50;19.60;4.10
41469;DHT22;27206;47.032;15.484;2023-10-19T12:02:19;19.60;2.10
41469;DHT22;27206;47.032;15.484;2023-10-19T12:04:46;19.00;12.00
41469;DHT22;27206;47.032;15.484;2023-10-19T12:07:12;18.80;14.50
41469;DHT22;27206;47.032;15.484;2023-10-19T12:09:37;18.70;22.30
41469;DHT22;27206;47.032;15.484;2023-10-19T12:12:07;18.80;20.00
41469;DHT22;27206;47.032;15.484;2023-10-19T12:14:33;18.90;19.30
41469;DHT22;27206;47.032;15.484;2023-10-19T12:17:00;18.70;27.80
41469;DHT22;27206;47.032;15.484;2023-10-19T12:19:31;18.50;29.80
41469;DHT22;27206;47.032;15.484;2023-10-19T12:21:57;18.60;24.70
41469;DHT22;27206;47.032;15.484;2023-10-19T12:24:23;18.90;16.10
41469;DHT22;27206;47.032;15.484;2023-10-19T12:26:49;18.60;17.40
41469;DHT22;27206;47.032;15.484;2023-10-19T12:29:16;18.40;22.20
41469;DHT22;27206;47.032;15.484;2023-10-19T12:31:46;18.60;24.90
41469;DHT22;27206;47.032;15.484;2023-10-19T12:34:12;18.60;19.40
41469;DHT22;27206;47.032;15.484;2023-10-19T12:36:37;18.40;28.10
41469;DHT22;27206;47.032;15.484;2023-10-19T12:39:03;18.30;32.80
41469;DHT22;27206;47.032;15.484;2023-10-19T12:41:33;18.30;38.70
41469;DHT22;27206;47.032;15.484;2023-10-19T12:43:59;18.30;41.40
41469;DHT22;27206;47.032;15.484;2023-10-19T12:46:27;18.40;34.00
41469;DHT22;27206;47.032;15.484;2023-10-19T12:48:55;18.70;27.70
41469;DHT22;27206;47.032;15.484;2023-10-19T12:51:22;18.90;24.40
41469;DHT22;27206;47.032;15.484;2023-10-19T12:53:51;20.10;13.20
41469;DHT22;27206;47.032;15.484;2023-10-19T12:56:21;21.70;1.00
41469;DHT22;27206;47.032;15.484;2023-10-19T12:58:49;22.10;1.00
41469;DHT22;27206;47.032;15.484;2023-10-19T13:01:15;21.90;1.00
41469;DHT22;27206;47.032;15.484;2023-10-19T13:03:45;20.50;1.00
41469;DHT22;27206;47.032;15.484;2023-10-19T13:06:12;19.80;1.00
41469;DHT22;27206;47.032;15.484;2023-10-19T13:08:38;19.70;1.00
41469;DHT22;27206;47.032;15.484;2023-10-19T13:11:09;19.70;1.70
41469;DHT22;27206;47.032;15.484;2023-10-19T13:13:44;20.50;1.00
41469;DHT22;27206;47.032;15.484;2023-10-19T13:16:09;20.80;1.00
41469;DHT22;27206;47.032;15.484;2023-10-19T13:18:35;20.70;1.00
41469;DHT22;27206;47.032;15.484;2023-10-19T13:21:01;20.60;1.00
41469;DHT22;27206;47.032;15.484;2023-10-19T13:23:33;20.30;1.00
41469;DHT22;27206;47.032;15.484;2023-10-19T13:25:59;19.90;1.10
41469;DHT22;27206;47.032;15.484;2023-10-19T13:28:40;19.50;12.00
41469;DHT22;27206;47.032;15.484;2023-10-19T13:31:08;19.60;16.80
41469;DHT22;27206;47.032;15.484;2023-10-19T13:33:35;19.50;21.60
41469;DHT22;27206;47.032;15.484;2023-10-19T13:36:00;19.50;22.80
41469;DHT22;27206;47.032;15.484;2023-10-19T13:38:26;19.40;21.00
41469;DHT22;27206;47.032;15.484;2023-10-19T13:40:51;19.30;27.80
41469;DHT22;27206;47.032;15.484;2023-10-19T13:43:19;19.20;32.90
41469;DHT22;27206;47.032;15.484;2023-10-19T13:45:46;19.20;36.10
41469;DHT22;27206;47.032;15.484;2023-10-19T13:48:13;19.40;27.20
41469;DHT22;27206;47.032;15.484;2023-10-19T13:50:43;19.10;37.10
41469;DHT22;27206;47.032;15.484;2023-10-19T13:53:09;19.20;34.80
41469;DHT22;27206;47.032;15.484;2023-10-19T13:55:35;19.20;32.20
41469;DHT22;27206;47.032;15.484;2023-10-19T13:58:02;19.20;38.50
41469;DHT22;27206;47.032;15.484;2023-10-19T14:00:27;19.20;40.80
41469;DHT22;27206;47.032;15.484;2023-10-19T14:03:01;19.20;39.40
41469;DHT22;27206;47.032;15.484;2023-10-19T14:05:28;19.10;44.90
41469;DHT22;27206;47.032;15.484;2023-10-19T14:07:55;19.30;44.10
41469;DHT22;27206;47.032;15.484;2023-10-19T14:10:22;19.30;55.00
41469;DHT22;27206;47.032;15.484;2023-10-19T14:12:48;19.30;40.40
41469;DHT22;27206;47.032;15.484;2023-10-19T14:15:18;19.20;41.80
41469;DHT22;27206;47.032;15.484;2023-10-19T14:17:45;19.20;46.40
41469;DHT22;27206;47.032;15.484;2023-10-19T14:20:12;19.00;49.70
41469;DHT22;27206;47.032;15.484;2023-10-19T14:22:58;18.80;56.60
41469;DHT22;27206;47.032;15.484;2023-10-19T14:25:24;18.90;62.40
41469;DHT22;27206;47.032;15.484;2023-10-19T14:27:51;18.90;64.90
41469;DHT22;27206;47.032;15.484;2023-10-19T14:30:21;18.90;58.30
41469;DHT22;27206;47.032;15.484;2023-10-19T14:32:48;19.00;53.20
41469;DHT22;27206;47.032;15.484;2023-10-19T14:35:20;18.70;62.20
41469;DHT22;27206;47.032;15.484;2023-10-19T14:37:48;18.80;73.80
41469;DHT22;27206;47.032;15.484;2023-10-19T14:40:16;18.90;76.00
41469;DHT22;27206;47.032;15.484;2023-10-19T14:42:42;18.90;74.40
41469;DHT22;27206;47.032;15.484;2023-10-19T14:45:10;18.70;72.30
41469;DHT22;27206;47.032;15.484;2023-10-19T14:47:39;18.60;83.60
41469;DHT22;27206;47.032;15.484;2023-10-19T14:50:11;18.50;74.30
41469;DHT22;27206;47.032;15.484;2023-10-19T14:52:42;18.60;71.20
41469;DHT22;27206;47.032;15.484;2023-10-19T14:55:09;18.40;73.10
41469;DHT22;27206;47.032;15.484;2023-10-19T14:57:35;18.10;92.80
41469;DHT22;27206;47.032;15.484;2023-10-19T15:00:06;17.80;99.90
41469;DHT22;27206;47.032;15.484;2023-10-19T15:02:56;18.20;99.50
41469;DHT22;27206;47.032;15.484;2023-10-19T15:05:26;18.30;97.50
41469;DHT22;27206;47.032;15.484;2023-10-19T15:07:52;19.70;75.20
41469;DHT22;27206;47.032;15.484;2023-10-19T15:10:21;20.70;51.80
41469;DHT22;27206;47.032;15.484;2023-10-19T15:12:47;20.50;41.60
41469;DHT22;27206;47.032;15.484;2023-10-19T15:15:14;20.70;47.80
41469;DHT22;27206;47.032;15.484;2023-10-19T15:17:41;20.40;47.70
41469;DHT22;27206;47.032;15.484;2023-10-19T15:20:08;19.70;65.30
41469;DHT22;27206;47.032;15.484;2023-10-19T15:22:36;19.10;78.40
41469;DHT22;27206;47.032;15.484;2023-10-19T15:25:01;18.60;91.50
41469;DHT22;27206;47.032;15.484;2023-10-19T15:27:27;18.20;97.60
41469;DHT22;27206;47.032;15.484;2023-10-19T15:29:58;18.00;99.90
41469;DHT22;27206;47.032;15.484;2023-10-19T15:32:24;18.00;99.90
41469;DHT22;27206;47.032;15.484;2023-10-19T15:34:55;17.80;99.90
41469;DHT22;27206;47.032;15.484;2023-10-19T15:37:22;17.60;99.90
41469;DHT22;27206;47.032;15.484;2023-10-19T15:39:49;17.50;99.90
41469;DHT22;27206;47.032;15.484;2023-10-19T15:42:15;17.40;99.90
41469;DHT22;27206;47.032;15.484;2023-10-19T15:44:40;17.30;99.90
41469;DHT22;27206;47.032;15.484;2023-10-19T15:47:06;17.20;99.90